sensor_id;sensor_type;location;lat;lon;timestamp;pressure;altitude;pressure_sealevel;temperature;humidity
13767;BME280;47980;48.794;9.176;2023-04-21T00:01:11;97891.09;;;7.39;100.00
13767;BME280;47980;48.794;9.176;2023-04-21T00:03:43;97895.59;;;7.47;100.00
13767;BME280;47980;48.794;9.176;2023-04-21T00:06:16;97896.06;;;7.32;100.00
13767;BME280;47980;48.794;9.176;2023-04-21T00:08:51;97894.19;;;7.33;100.00
13767;BME280;47980;48.794;9.176;2023-04-21T00:11:23;97891.22;;;7.26;100.00
13767;BME280;47980;48.794;9.176;2023-04-21T00:13:54;97892.75;;;7.09;100.00
13767;BME280;47980;48.794;9.176;2023-04-21T00:16:30;97892.63;;;7.23;100.00
13767;BME280;47980;48.794;9.176;2023-04-21T00:19:01;97895.00;;;7.51;100.00
13767;BME280;47980;48.794;9.176;2023-04-21T00:21:36;97894.06;;;7.64;100.00
13767;BME280;47980;48.794;9.176;2023-04-21T00:24:07;97895.00;;;7.59;100.00
13767;BME280;47980;48.794;9.176;2023-04-21T00:26:39;97890.59;;;7.29;100.00
13767;BME280;47980;48.794;9.176;2023-04-21T00:29:10;97887.84;;;7.34;100.00
13767;BME280;47980;48.794;9.176;2023-04-21T00:31:43;97879.28;;;7.28;100.00
13767;BME280;47980;48.794;9.176;2023-04-21T00:34:14;97884.88;;;7.35;100.00
13767;BME280;47980;48.794;9.176;2023-04-21T00:36:46;97884.72;;;7.32;100.00
13767;BME280;47980;48.794;9.176;2023-04-21T00:39:17;97877.25;;;7.25;100.00
13767;BME280;47980;48.794;9.176;2023-04-21T00:41:49;97874.00;;;7.28;100.00
13767;BME280;47980;48.794;9.176;2023-04-21T00:44:20;97875.41;;;7.26;100.00
13767;BME280;47980;48.794;9.176;2023-04-21T00:46:53;97871.44;;;6.97;100.00
13767;BME280;47980;48.794;9.176;2023-04-21T00:49:25;97871.97;;;7.16;100.00
13767;BME280;47980;48.794;9.176;2023-04-21T00:51:57;97871.84;;;7.39;100.00
13767;BME280;47980;48.794;9.176;2023-04-21T00:54:28;97864.50;;;7.01;100.00
13767;BME280;47980;48.794;9.176;2023-04-21T00:57:00;97858.75;;;6.99;100.00
13767;BME280;47980;48.794;9.176;2023-04-21T00:59:33;97856.72;;;6.96;100.00
13767;BME280;47980;48.794;9.176;2023-04-21T01:02:06;97868.41;;;7.21;100.00
13767;BME280;47980;48.794;9.176;2023-04-21T01:04:38;97865.44;;;7.05;100.00
13767;BME280;47980;48.794;9.176;2023-04-21T01:07:10;97864.50;;;7.18;100.00
13767;BME280;47980;48.794;9.176;2023-04-21T01:09:42;97865.66;;;7.35;100.00
13767;BME280;47980;48.794;9.176;2023-04-21T01:12:13;97862.66;;;7.10;100.00
13767;BME280;47980;48.794;9.176;2023-04-21T01:14:45;97856.13;;;7.08;100.00
13767;BME280;47980;48.794;9.176;2023-04-21T01:17:18;97857.53;;;7.22;100.00
13767;BME280;47980;48.794;9.176;2023-04-21T01:19:50;97848.44;;;7.37;100.00
13767;BME280;47980;48.794;9.176;2023-04-21T01:22:26;97845.56;;;6.99;100.00
13767;BME280;47980;48.794;9.176;2023-04-21T01:24:58;97843.25;;;6.97;100.00
13767;BME280;47980;48.794;9.176;2023-04-21T01:27:30;97841.97;;;6.95;100.00
13767;BME280;47980;48.794;9.176;2023-04-21T01:30:02;97843.84;;;6.94;100.00
13767;BME280;47980;48.794;9.176;2023-04-21T01:32:35;97841.50;;;6.84;100.00
13767;BME280;47980;48.794;9.176;2023-04-21T01:35:07;97836.59;;;6.60;100.00
13767;BME280;47980;48.794;9.176;2023-04-21T01:37:40;97848.88;;;6.65;100.00
13767;BME280;47980;48.794;9.176;2023-04-21T01:40:12;97848.06;;;6.56;100.00
13767;BME280;47980;48.794;9.176;2023-04-21T01:42:44;97851.34;;;6.61;100.00
13767;BME280;47980;48.794;9.176;2023-04-21T01:45:16;97847.75;;;6.57;100.00
13767;BME280;47980;48.794;9.176;2023-04-21T01:47:47;97845.44;;;6.64;100.00
13767;BME280;47980;48.794;9.176;2023-04-21T01:50:19;97842.81;;;6.64;100.00
13767;BME280;47980;48.794;9.176;2023-04-21T01:52:52;97849.34;;;6.67;100.00
13767;BME280;47980;48.794;9.176;2023-04-21T01:55:23;97855.53;;;6.62;100.00
13767;BME280;47980;48.794;9.176;2023-04-21T01:57:55;97854.19;;;6.42;100.00
13767;BME280;47980;48.794;9.176;2023-04-21T02:00:28;97851.88;;;6.41;100.00
13767;BME280;47980;48.794;9.176;2023-04-21T02:03:00;97857.38;;;6.31;100.00
13767;BME280;47980;48.794;9.176;2023-04-21T02:05:31;97854.28;;;6.29;100.00
13767;BME280;47980;48.794;9.176;2023-04-21T02:08:05;97860.03;;;6.31;100.00
13767;BME280;47980;48.794;9.176;2023-04-21T02:10:36;97852.59;;;6.33;100.00
13767;BME280;47980;48.794;9.176;2023-04-21T02:13:08;97849.16;;;6.55;100.00
13767;BME280;47980;48.794;9.176;2023-04-21T02:15:40;97845.59;;;6.59;100.00
13767;BME280;47980;48.794;9.176;2023-04-21T02:18:11;97845.31;;;6.69;100.00
13767;BME280;47980;48.794;9.176;2023-04-21T02:20:44;97840.72;;;6.44;100.00
13767;BME280;47980;48.794;9.176;2023-04-21T02:23:17;97852.91;;;6.31;100.00
13767;BME280;47980;48.794;9.176;2023-04-21T02:25:48;97848.88;;;6.34;100.00
13767;BME280;47980;48.794;9.176;2023-04-21T02:28:20;97855.06;;;6.29;100.00
13767;BME280;47980;48.794;9.176;2023-04-21T02:30:51;97853.47;;;6.19;100.00
13767;BME280;47980;48.794;9.176;2023-04-21T02:33:23;97842.22;;;6.05;100.00
13767;BME280;47980;48.794;9.176;2023-04-21T02:35:54;97840.34;;;6.06;100.00
13767;BME280;47980;48.794;9.176;2023-04-21T02:38:27;97840.72;;;6.13;100.00
13767;BME280;47980;48.794;9.176;2023-04-21T02:40:59;97845.63;;;6.06;100.00
13767;BME280;47980;48.794;9.176;2023-04-21T02:43:31;97855.56;;;6.09;100.00
13767;BME280;47980;48.794;9.176;2023-04-21T02:46:05;97862.81;;;6.03;100.00
13767;BME280;47980;48.794;9.176;2023-04-21T02:48:36;97863.09;;;6.01;100.00
13767;BME280;47980;48.794;9.176;2023-04-21T02:51:10;97864.09;;;5.92;100.00
13767;BME280;47980;48.794;9.176;2023-04-21T02:53:44;97868.03;;;5.80;100.00
13767;BME280;47980;48.794;9.176;2023-04-21T02:56:15;97860.50;;;5.88;100.00
13767;BME280;47980;48.794;9.176;2023-04-21T02:58:46;97863.31;;;5.91;100.00
13767;BME280;47980;48.794;9.176;2023-04-21T03:01:18;97866.66;;;5.83;100.00
13767;BME280;47980;48.794;9.176;2023-04-21T03:03:49;97851.28;;;5.76;100.00
13767;BME280;47980;48.794;9.176;2023-04-21T03:06:23;97852.25;;;5.80;100.00
13767;BME280;47980;48.794;9.176;2023-04-21T03:08:58;97850.88;;;5.83;100.00
13767;BME280;47980;48.794;9.176;2023-04-21T03:11:29;97847.34;;;5.88;100.00
13767;BME280;47980;48.794;9.176;2023-04-21T03:14:01;97853.41;;;5.88;100.00
13767;BME280;47980;48.794;9.176;2023-04-21T03:16:32;97843.03;;;5.92;100.00
13767;BME280;47980;48.794;9.176;2023-04-21T03:19:04;97839.38;;;5.93;100.00
13767;BME280;47980;48.794;9.176;2023-04-21T03:21:36;97837.97;;;5.95;100.00
13767;BME280;47980;48.794;9.176;2023-04-21T03:24:09;97833.13;;;5.89;100.00
13767;BME280;47980;48.794;9.176;2023-04-21T03:26:41;97835.34;;;5.95;100.00
13767;BME280;47980;48.794;9.176;2023-04-21T03:29:12;97834.09;;;5.93;100.00
13767;BME280;47980;48.794;9.176;2023-04-21T03:31:44;97827.44;;;5.95;100.00
13767;BME280;47980;48.794;9.176;2023-04-21T03:34:15;97838.03;;;6.04;100.00
13767;BME280;47980;48.794;9.176;2023-04-21T03:36:47;97839.75;;;6.09;100.00
13767;BME280;47980;48.794;9.176;2023-04-21T03:39:20;97837.25;;;6.03;100.00
13767;BME280;47980;48.794;9.176;2023-04-21T03:41:51;97841.31;;;6.10;100.00
13767;BME280;47980;48.794;9.176;2023-04-21T03:44:24;97830.75;;;6.01;100.00
13767;BME280;47980;48.794;9.176;2023-04-21T03:46:58;97831.22;;;6.03;100.00
13767;BME280;47980;48.794;9.176;2023-04-21T03:49:29;97828.88;;;6.01;100.00
13767;BME280;47980;48.794;9.176;2023-04-21T03:52:01;97827.38;;;6.09;100.00
13767;BME280;47980;48.794;9.176;2023-04-21T03:54:34;97842.22;;;6.05;100.00
13767;BME280;47980;48.794;9.176;2023-04-21T03:57:05;97844.69;;;6.01;100.00
13767;BME280;47980;48.794;9.176;2023-04-21T03:59:37;97837.78;;;6.14;100.00
13767;BME280;47980;48.794;9.176;2023-04-21T04:02:08;97839.47;;;6.10;100.00
13767;BME280;47980;48.794;9.176;2023-04-21T04:04:40;97851.97;;;6.05;100.00
13767;BME280;47980;48.794;9.176;2023-04-21T04:07:11;97851.94;;;5.96;100.00
13767;BME280;47980;48.794;9.176;2023-04-21T04:09:44;97841.44;;;6.05;100.00
13767;BME280;47980;48.794;9.176;2023-04-21T04:12:16;97841.94;;;6.07;100.00
13767;BME280;47980;48.794;9.176;2023-04-21T04:14:47;97849.47;;;5.99;100.00
13767;BME280;47980;48.794;9.176;2023-04-21T04:17:19;97851.75;;;5.92;100.00
13767;BME280;47980;48.794;9.176;2023-04-21T04:19:50;97847.91;;;5.98;100.00
13767;BME280;47980;48.794;9.176;2023-04-21T04:22:22;97850.13;;;6.05;100.00
13767;BME280;47980;48.794;9.176;2023-04-21T04:24:57;97842.72;;;6.07;100.00
13767;BME280;47980;48.794;9.176;2023-04-21T04:27:29;97841.97;;;6.15;100.00
13767;BME280;47980;48.794;9.176;2023-04-21T04:30:00;97849.38;;;6.13;100.00
13767;BME280;47980;48.794;9.176;2023-04-21T04:32:32;97860.59;;;6.19;100.00
13767;BME280;47980;48.794;9.176;2023-04-21T04:35:04;97855.13;;;6.15;100.00
13767;BME280;47980;48.794;9.176;2023-04-21T04:37:36;97852.94;;;6.09;100.00
13767;BME280;47980;48.794;9.176;2023-04-21T04:40:09;97850.47;;;5.90;100.00
13767;BME280;47980;48.794;9.176;2023-04-21T04:42:42;97852.56;;;6.01;100.00
13767;BME280;47980;48.794;9.176;2023-04-21T04:45:16;97851.56;;;6.11;100.00
13767;BME280;47980;48.794;9.176;2023-04-21T04:47:50;97850.06;;;6.19;100.00
13767;BME280;47980;48.794;9.176;2023-04-21T04:50:22;97851.25;;;6.13;100.00
13767;BME280;47980;48.794;9.176;2023-04-21T04:52:53;97850.97;;;6.14;100.00
13767;BME280;47980;48.794;9.176;2023-04-21T04:55:29;97854.91;;;6.25;100.00
13767;BME280;47980;48.794;9.176;2023-04-21T04:58:00;97864.16;;;6.23;100.00
13767;BME280;47980;48.794;9.176;2023-04-21T05:00:32;97864.19;;;6.32;100.00
13767;BME280;47980;48.794;9.176;2023-04-21T05:03:03;97868.53;;;6.27;100.00
13767;BME280;47980;48.794;9.176;2023-04-21T05:05:35;97870.13;;;6.68;100.00
13767;BME280;47980;48.794;9.176;2023-04-21T05:08:07;97871.00;;;6.55;100.00
13767;BME280;47980;48.794;9.176;2023-04-21T05:10:40;97886.78;;;6.46;100.00
13767;BME280;47980;48.794;9.176;2023-04-21T05:13:11;97886.97;;;6.59;100.00
13767;BME280;47980;48.794;9.176;2023-04-21T05:15:43;97893.09;;;6.45;100.00
13767;BME280;47980;48.794;9.176;2023-04-21T05:18:14;97889.00;;;6.62;100.00
13767;BME280;47980;48.794;9.176;2023-04-21T05:20:46;97887.41;;;6.83;100.00
13767;BME280;47980;48.794;9.176;2023-04-21T05:23:17;97879.84;;;6.99;100.00
13767;BME280;47980;48.794;9.176;2023-04-21T05:25:50;97885.44;;;7.15;100.00
13767;BME280;47980;48.794;9.176;2023-04-21T05:28:22;97885.59;;;7.10;98.82
13767;BME280;47980;48.794;9.176;2023-04-21T05:30:53;97889.72;;;6.93;99.81
13767;BME280;47980;48.794;9.176;2023-04-21T05:33:26;97896.25;;;6.96;100.00
13767;BME280;47980;48.794;9.176;2023-04-21T05:36:00;97893.63;;;6.87;100.00
13767;BME280;47980;48.794;9.176;2023-04-21T05:38:32;97896.31;;;7.05;100.00
13767;BME280;47980;48.794;9.176;2023-04-21T05:41:06;97906.69;;;7.01;100.00
13767;BME280;47980;48.794;9.176;2023-04-21T05:43:38;97903.16;;;7.14;99.69
13767;BME280;47980;48.794;9.176;2023-04-21T05:46:09;97901.72;;;6.99;100.00
13767;BME280;47980;48.794;9.176;2023-04-21T05:48:42;97906.28;;;7.25;99.82
13767;BME280;47980;48.794;9.176;2023-04-21T05:51:14;97898.19;;;7.21;100.00
13767;BME280;47980;48.794;9.176;2023-04-21T05:53:46;97900.88;;;7.47;99.24
13767;BME280;47980;48.794;9.176;2023-04-21T05:56:19;97887.81;;;7.16;98.20
13767;BME280;47980;48.794;9.176;2023-04-21T05:58:51;97889.22;;;6.74;100.00
13767;BME280;47980;48.794;9.176;2023-04-21T06:01:22;97884.59;;;6.88;100.00
13767;BME280;47980;48.794;9.176;2023-04-21T06:03:54;97881.81;;;6.85;100.00
13767;BME280;47980;48.794;9.176;2023-04-21T06:06:26;97874.72;;;6.94;100.00
13767;BME280;47980;48.794;9.176;2023-04-21T06:08:57;97875.09;;;7.36;100.00
13767;BME280;47980;48.794;9.176;2023-04-21T06:11:30;97877.41;;;7.20;100.00
13767;BME280;47980;48.794;9.176;2023-04-21T06:14:02;97875.91;;;7.45;100.00
13767;BME280;47980;48.794;9.176;2023-04-21T06:16:34;97873.41;;;7.57;100.00
13767;BME280;47980;48.794;9.176;2023-04-21T06:19:05;97864.84;;;8.12;97.19
13767;BME280;47980;48.794;9.176;2023-04-21T06:21:37;97863.56;;;8.36;95.26
13767;BME280;47980;48.794;9.176;2023-04-21T06:24:08;97865.50;;;8.65;92.10
13767;BME280;47980;48.794;9.176;2023-04-21T06:26:41;97877.56;;;8.83;90.01
13767;BME280;47980;48.794;9.176;2023-04-21T06:29:13;97884.06;;;8.86;90.79
13767;BME280;47980;48.794;9.176;2023-04-21T06:31:44;97870.41;;;8.19;95.13
13767;BME280;47980;48.794;9.176;2023-04-21T06:34:16;97875.19;;;8.90;91.80
13767;BME280;47980;48.794;9.176;2023-04-21T06:36:49;97874.84;;;9.22;86.83
13767;BME280;47980;48.794;9.176;2023-04-21T06:39:20;97872.78;;;9.78;87.12
13767;BME280;47980;48.794;9.176;2023-04-21T06:41:53;97882.78;;;10.05;86.48
13767;BME280;47980;48.794;9.176;2023-04-21T06:44:27;97882.72;;;10.14;84.20
13767;BME280;47980;48.794;9.176;2023-04-21T06:46:58;97876.31;;;9.61;85.90
13767;BME280;47980;48.794;9.176;2023-04-21T06:49:30;97873.38;;;9.33;86.69
13767;BME280;47980;48.794;9.176;2023-04-21T06:52:03;97880.63;;;9.65;86.82
13767;BME280;47980;48.794;9.176;2023-04-21T06:54:35;97881.88;;;9.68;83.85
13767;BME280;47980;48.794;9.176;2023-04-21T06:57:08;97875.78;;;8.96;88.94
13767;BME280;47980;48.794;9.176;2023-04-21T06:59:40;97870.22;;;8.51;93.47
13767;BME280;47980;48.794;9.176;2023-04-21T07:02:12;97868.66;;;8.88;89.40
13767;BME280;47980;48.794;9.176;2023-04-21T07:04:43;97873.00;;;8.92;88.88
13767;BME280;47980;48.794;9.176;2023-04-21T07:07:15;97884.31;;;9.02;90.24
13767;BME280;47980;48.794;9.176;2023-04-21T07:09:46;97876.09;;;8.56;92.37
13767;BME280;47980;48.794;9.176;2023-04-21T07:12:22;97877.78;;;8.70;91.98
13767;BME280;47980;48.794;9.176;2023-04-21T07:14:53;97871.94;;;9.14;88.96
13767;BME280;47980;48.794;9.176;2023-04-21T07:17:25;97867.72;;;8.54;93.72
13767;BME280;47980;48.794;9.176;2023-04-21T07:19:56;97866.72;;;9.06;90.38
13767;BME280;47980;48.794;9.176;2023-04-21T07:22:28;97872.00;;;9.56;86.70
13767;BME280;47980;48.794;9.176;2023-04-21T07:24:59;97865.44;;;9.96;86.64
13767;BME280;47980;48.794;9.176;2023-04-21T07:27:33;97855.25;;;10.19;80.91
13767;BME280;47980;48.794;9.176;2023-04-21T07:30:07;97861.91;;;9.71;84.68
13767;BME280;47980;48.794;9.176;2023-04-21T07:32:38;97854.88;;;10.41;81.41
13767;BME280;47980;48.794;9.176;2023-04-21T07:35:10;97858.31;;;9.87;84.42
13767;BME280;47980;48.794;9.176;2023-04-21T07:37:41;97852.84;;;10.26;80.86
13767;BME280;47980;48.794;9.176;2023-04-21T07:40:13;97855.53;;;10.05;79.63
13767;BME280;47980;48.794;9.176;2023-04-21T07:42:46;97847.50;;;10.96;78.87
13767;BME280;47980;48.794;9.176;2023-04-21T07:45:18;97851.94;;;10.92;77.28
13767;BME280;47980;48.794;9.176;2023-04-21T07:47:50;97852.47;;;11.09;78.79
13767;BME280;47980;48.794;9.176;2023-04-21T07:50:21;97850.59;;;11.63;75.60
13767;BME280;47980;48.794;9.176;2023-04-21T07:52:53;97841.47;;;11.36;76.42
13767;BME280;47980;48.794;9.176;2023-04-21T07:55:24;97846.38;;;11.09;74.93
13767;BME280;47980;48.794;9.176;2023-04-21T07:57:57;97849.53;;;11.39;74.79
13767;BME280;47980;48.794;9.176;2023-04-21T08:00:29;97844.56;;;11.38;73.06
13767;BME280;47980;48.794;9.176;2023-04-21T08:03:00;97844.22;;;11.39;75.16
13767;BME280;47980;48.794;9.176;2023-04-21T08:05:32;97847.59;;;11.64;73.62
13767;BME280;47980;48.794;9.176;2023-04-21T08:08:04;97843.25;;;12.75;71.08
13767;BME280;47980;48.794;9.176;2023-04-21T08:10:36;97843.34;;;11.35;73.18
13767;BME280;47980;48.794;9.176;2023-04-21T08:13:09;97842.84;;;11.57;74.04
13767;BME280;47980;48.794;9.176;2023-04-21T08:15:40;97836.28;;;11.67;71.17
13767;BME280;47980;48.794;9.176;2023-04-21T08:18:12;97844.28;;;12.39;70.82
13767;BME280;47980;48.794;9.176;2023-04-21T08:20:46;97844.38;;;12.43;68.83
13767;BME280;47980;48.794;9.176;2023-04-21T08:23:18;97841.97;;;11.53;70.22
13767;BME280;47980;48.794;9.176;2023-04-21T08:25:49;97845.59;;;12.01;71.21
13767;BME280;47980;48.794;9.176;2023-04-21T08:28:22;97841.25;;;12.09;71.01
13767;BME280;47980;48.794;9.176;2023-04-21T08:30:54;97841.09;;;12.65;70.50
13767;BME280;47980;48.794;9.176;2023-04-21T08:33:25;97837.41;;;12.54;70.35
13767;BME280;47980;48.794;9.176;2023-04-21T08:35:57;97834.94;;;12.61;70.43
13767;BME280;47980;48.794;9.176;2023-04-21T08:38:28;97835.28;;;12.75;69.66
13767;BME280;47980;48.794;9.176;2023-04-21T08:41:01;97824.34;;;13.32;67.26
13767;BME280;47980;48.794;9.176;2023-04-21T08:43:35;97823.66;;;12.84;70.36
13767;BME280;47980;48.794;9.176;2023-04-21T08:46:07;97832.88;;;12.55;68.90
13767;BME280;47980;48.794;9.176;2023-04-21T08:48:40;97826.16;;;12.13;73.57
13767;BME280;47980;48.794;9.176;2023-04-21T08:51:17;97838.97;;;12.55;70.07
13767;BME280;47980;48.794;9.176;2023-04-21T08:53:53;97838.34;;;12.77;69.42
13767;BME280;47980;48.794;9.176;2023-04-21T08:56:25;97834.47;;;12.91;70.08
13767;BME280;47980;48.794;9.176;2023-04-21T08:58:58;97836.91;;;13.15;68.57
13767;BME280;47980;48.794;9.176;2023-04-21T09:01:30;97831.41;;;12.73;69.47
13767;BME280;47980;48.794;9.176;2023-04-21T09:04:15;97825.97;;;12.85;70.09
13767;BME280;47980;48.794;9.176;2023-04-21T09:06:46;97833.09;;;12.97;68.54
13767;BME280;47980;48.794;9.176;2023-04-21T09:09:18;97843.22;;;12.91;70.04
13767;BME280;47980;48.794;9.176;2023-04-21T09:11:53;97835.63;;;13.25;70.82
13767;BME280;47980;48.794;9.176;2023-04-21T09:14:32;97819.78;;;12.81;70.31
13767;BME280;47980;48.794;9.176;2023-04-21T09:17:04;97824.72;;;12.79;70.76
13767;BME280;47980;48.794;9.176;2023-04-21T09:19:35;97825.22;;;12.69;68.71
13767;BME280;47980;48.794;9.176;2023-04-21T09:22:07;97816.03;;;13.33;70.75
13767;BME280;47980;48.794;9.176;2023-04-21T09:24:44;97815.44;;;13.24;68.88
13767;BME280;47980;48.794;9.176;2023-04-21T09:27:16;97816.28;;;12.45;71.87
13767;BME280;47980;48.794;9.176;2023-04-21T09:29:49;97808.00;;;12.98;70.36
13767;BME280;47980;48.794;9.176;2023-04-21T09:32:20;97806.84;;;12.80;72.82
13767;BME280;47980;48.794;9.176;2023-04-21T09:34:52;97803.53;;;13.02;70.05
13767;BME280;47980;48.794;9.176;2023-04-21T09:37:23;97805.53;;;12.89;71.54
13767;BME280;47980;48.794;9.176;2023-04-21T09:39:55;97802.06;;;13.05;70.46
13767;BME280;47980;48.794;9.176;2023-04-21T09:42:27;97809.78;;;13.45;68.16
13767;BME280;47980;48.794;9.176;2023-04-21T09:45:01;97802.09;;;14.02;65.71
13767;BME280;47980;48.794;9.176;2023-04-21T09:47:35;97808.91;;;14.22;65.57
13767;BME280;47980;48.794;9.176;2023-04-21T09:50:11;97810.34;;;14.62;64.89
13767;BME280;47980;48.794;9.176;2023-04-21T09:52:43;97802.94;;;14.06;65.17
13767;BME280;47980;48.794;9.176;2023-04-21T09:55:17;97809.31;;;14.01;66.51
13767;BME280;47980;48.794;9.176;2023-04-21T09:57:50;97808.81;;;14.38;65.47
13767;BME280;47980;48.794;9.176;2023-04-21T10:00:25;97799.94;;;14.80;63.88
13767;BME280;47980;48.794;9.176;2023-04-21T10:02:59;97797.31;;;14.57;64.68
13767;BME280;47980;48.794;9.176;2023-04-21T10:05:34;97787.69;;;14.29;65.99
13767;BME280;47980;48.794;9.176;2023-04-21T10:08:07;97789.97;;;14.77;65.68
13767;BME280;47980;48.794;9.176;2023-04-21T10:10:40;97787.22;;;15.60;62.06
13767;BME280;47980;48.794;9.176;2023-04-21T10:13:13;97777.16;;;15.16;63.34
13767;BME280;47980;48.794;9.176;2023-04-21T10:16:00;97773.78;;;15.53;61.20
13767;BME280;47980;48.794;9.176;2023-04-21T10:18:34;97762.47;;;15.03;64.00
13767;BME280;47980;48.794;9.176;2023-04-21T10:21:08;97765.75;;;14.89;64.31
13767;BME280;47980;48.794;9.176;2023-04-21T10:23:42;97771.78;;;15.12;64.27
13767;BME280;47980;48.794;9.176;2023-04-21T10:26:19;97767.63;;;15.15;63.77
13767;BME280;47980;48.794;9.176;2023-04-21T10:28:53;97766.75;;;15.37;65.23
13767;BME280;47980;48.794;9.176;2023-04-21T10:31:31;97767.94;;;15.74;64.69
13767;BME280;47980;48.794;9.176;2023-04-21T10:37:11;97763.50;;;15.88;61.79
13767;BME280;47980;48.794;9.176;2023-04-21T10:39:52;97752.22;;;15.69;63.87
13767;BME280;47980;48.794;9.176;2023-04-21T10:42:29;97760.22;;;15.05;63.57
13767;BME280;47980;48.794;9.176;2023-04-21T10:45:09;97763.72;;;15.73;62.41
13767;BME280;47980;48.794;9.176;2023-04-21T10:47:44;97761.53;;;15.85;62.03
13767;BME280;47980;48.794;9.176;2023-04-21T10:50:22;97759.06;;;16.07;61.32
13767;BME280;47980;48.794;9.176;2023-04-21T10:52:57;97761.31;;;15.30;62.98
13767;BME280;47980;48.794;9.176;2023-04-21T10:55:29;97755.06;;;15.53;62.10
13767;BME280;47980;48.794;9.176;2023-04-21T10:58:02;97752.44;;;15.56;63.14
13767;BME280;47980;48.794;9.176;2023-04-21T11:00:34;97750.59;;;15.98;64.81
13767;BME280;47980;48.794;9.176;2023-04-21T11:03:09;97755.75;;;16.21;62.06
13767;BME280;47980;48.794;9.176;2023-04-21T11:05:40;97758.31;;;16.58;62.80
13767;BME280;47980;48.794;9.176;2023-04-21T11:08:13;97753.25;;;15.94;62.91
13767;BME280;47980;48.794;9.176;2023-04-21T11:10:49;97745.59;;;15.96;63.20
13767;BME280;47980;48.794;9.176;2023-04-21T11:13:23;97744.03;;;15.92;64.73
13767;BME280;47980;48.794;9.176;2023-04-21T11:16:03;97743.63;;;15.89;64.37
13767;BME280;47980;48.794;9.176;2023-04-21T11:18:43;97746.72;;;15.92;64.03
13767;BME280;47980;48.794;9.176;2023-04-21T11:21:16;97738.97;;;15.83;63.39
13767;BME280;47980;48.794;9.176;2023-04-21T11:23:52;97736.00;;;16.40;63.34
13767;BME280;47980;48.794;9.176;2023-04-21T11:26:29;97742.06;;;16.33;63.50
13767;BME280;47980;48.794;9.176;2023-04-21T11:29:02;97727.59;;;17.00;61.14
13767;BME280;47980;48.794;9.176;2023-04-21T11:31:36;97732.25;;;17.17;60.19
13767;BME280;47980;48.794;9.176;2023-04-21T11:34:09;97738.75;;;16.47;60.78
13767;BME280;47980;48.794;9.176;2023-04-21T11:36:42;97724.13;;;16.89;60.55
13767;BME280;47980;48.794;9.176;2023-04-21T11:39:15;97739.19;;;16.52;61.86
13767;BME280;47980;48.794;9.176;2023-04-21T11:41:50;97736.53;;;16.59;61.33
13767;BME280;47980;48.794;9.176;2023-04-21T11:44:32;97721.28;;;16.67;62.45
13767;BME280;47980;48.794;9.176;2023-04-21T11:47:14;97712.47;;;16.70;61.25
13767;BME280;47980;48.794;9.176;2023-04-21T11:49:48;97712.25;;;16.93;61.17
13767;BME280;47980;48.794;9.176;2023-04-21T11:52:24;97706.19;;;17.03;61.18
13767;BME280;47980;48.794;9.176;2023-04-21T11:54:57;97707.69;;;16.97;62.83
13767;BME280;47980;48.794;9.176;2023-04-21T11:57:31;97706.25;;;17.21;60.46
13767;BME280;47980;48.794;9.176;2023-04-21T12:00:04;97703.19;;;17.26;59.59
13767;BME280;47980;48.794;9.176;2023-04-21T12:02:37;97709.81;;;17.65;59.80
13767;BME280;47980;48.794;9.176;2023-04-21T12:05:11;97703.28;;;17.51;59.09
13767;BME280;47980;48.794;9.176;2023-04-21T12:07:46;97704.81;;;17.67;60.54
13767;BME280;47980;48.794;9.176;2023-04-21T12:10:20;97707.38;;;17.20;59.76
13767;BME280;47980;48.794;9.176;2023-04-21T12:12:54;97702.03;;;17.24;60.20
13767;BME280;47980;48.794;9.176;2023-04-21T12:15:28;97703.50;;;17.03;60.23
13767;BME280;47980;48.794;9.176;2023-04-21T12:18:00;97699.91;;;17.83;59.03
13767;BME280;47980;48.794;9.176;2023-04-21T12:20:33;97694.88;;;17.71;59.33
13767;BME280;47980;48.794;9.176;2023-04-21T12:23:05;97696.44;;;18.00;58.93
13767;BME280;47980;48.794;9.176;2023-04-21T12:25:36;97691.06;;;17.75;58.60
13767;BME280;47980;48.794;9.176;2023-04-21T12:28:08;97698.75;;;18.27;57.25
13767;BME280;47980;48.794;9.176;2023-04-21T12:30:40;97687.63;;;18.25;57.45
13767;BME280;47980;48.794;9.176;2023-04-21T12:33:11;97686.88;;;17.96;58.27
13767;BME280;47980;48.794;9.176;2023-04-21T12:35:44;97682.66;;;17.95;60.63
13767;BME280;47980;48.794;9.176;2023-04-21T12:38:16;97680.34;;;17.97;57.55
13767;BME280;47980;48.794;9.176;2023-04-21T12:40:48;97670.34;;;18.26;58.02
13767;BME280;47980;48.794;9.176;2023-04-21T12:43:19;97661.94;;;18.17;57.40
13767;BME280;47980;48.794;9.176;2023-04-21T12:45:51;97655.41;;;18.03;58.11
13767;BME280;47980;48.794;9.176;2023-04-21T12:48:23;97658.84;;;17.75;58.29
13767;BME280;47980;48.794;9.176;2023-04-21T12:50:56;97655.41;;;17.86;57.95
13767;BME280;47980;48.794;9.176;2023-04-21T12:53:27;97645.03;;;18.38;57.92
13767;BME280;47980;48.794;9.176;2023-04-21T12:55:59;97644.25;;;18.34;56.96
13767;BME280;47980;48.794;9.176;2023-04-21T12:58:30;97643.34;;;18.87;55.51
13767;BME280;47980;48.794;9.176;2023-04-21T13:01:02;97645.38;;;18.40;56.02
13767;BME280;47980;48.794;9.176;2023-04-21T13:03:33;97647.59;;;18.77;56.31
13767;BME280;47980;48.794;9.176;2023-04-21T13:06:06;97641.53;;;18.44;54.96
13767;BME280;47980;48.794;9.176;2023-04-21T13:08:38;97649.16;;;18.82;53.75
13767;BME280;47980;48.794;9.176;2023-04-21T13:11:10;97646.44;;;18.85;55.34
13767;BME280;47980;48.794;9.176;2023-04-21T13:13:42;97647.19;;;18.93;55.26
13767;BME280;47980;48.794;9.176;2023-04-21T13:16:13;97651.09;;;18.78;55.36
13767;BME280;47980;48.794;9.176;2023-04-21T13:18:45;97643.34;;;18.90;53.06
13767;BME280;47980;48.794;9.176;2023-04-21T13:21:18;97636.88;;;19.51;52.65
13767;BME280;47980;48.794;9.176;2023-04-21T13:23:50;97633.88;;;19.38;53.05
13767;BME280;47980;48.794;9.176;2023-04-21T13:26:22;97633.13;;;19.34;53.98
13767;BME280;47980;48.794;9.176;2023-04-21T13:28:54;97617.69;;;18.71;53.78
13767;BME280;47980;48.794;9.176;2023-04-21T13:31:25;97621.03;;;19.00;54.07
13767;BME280;47980;48.794;9.176;2023-04-21T13:33:59;97610.97;;;19.12;53.15